createdAt,value
2019-04-07T00:01:53.242Z,7.35
2019-04-07T00:04:21.611Z,7.33
2019-04-07T00:06:49.742Z,7.42
2019-04-07T00:09:17.949Z,7.38
2019-04-07T00:11:46.146Z,7.35
2019-04-07T00:14:14.355Z,7.30
2019-04-07T00:16:42.693Z,7.22
2019-04-07T00:19:11.135Z,7.18
2019-04-07T00:21:39.617Z,7.19
2019-04-07T00:24:07.798Z,7.17
2019-04-07T00:26:36.006Z,7.10
2019-04-07T00:29:04.767Z,7.00
2019-04-07T00:31:32.983Z,6.94
2019-04-07T00:34:01.611Z,6.96
2019-04-07T00:36:30.024Z,6.93
2019-04-07T00:38:58.222Z,6.92
2019-04-07T00:41:26.463Z,6.90
2019-04-07T00:43:54.914Z,6.85
2019-04-07T00:46:23.373Z,6.85
2019-04-07T00:48:51.532Z,6.86
2019-04-07T00:51:20.579Z,6.85
2019-04-07T00:53:48.822Z,6.82
2019-04-07T00:56:17.016Z,6.91
2019-04-07T00:58:45.678Z,6.91
2019-04-07T01:01:15.466Z,6.88
2019-04-07T01:03:43.689Z,6.90
2019-04-07T01:06:12.926Z,6.96
2019-04-07T01:08:41.555Z,6.97
2019-04-07T01:11:09.842Z,7.05
2019-04-07T01:13:38.557Z,7.02
2019-04-07T01:16:06.728Z,7.01
2019-04-07T01:18:35.571Z,7.06
2019-04-07T01:21:03.859Z,7.08
2019-04-07T01:23:32.527Z,7.05
2019-04-07T01:26:00.960Z,7.03
2019-04-07T01:28:29.512Z,7.05
2019-04-07T01:30:59.030Z,7.09
2019-04-07T01:33:27.751Z,7.14
2019-04-07T01:35:56.434Z,7.15
2019-04-07T01:38:24.676Z,7.13
2019-04-07T01:40:59.975Z,7.02
2019-04-07T01:43:38.449Z,6.94
2019-04-07T01:46:11.088Z,6.87
2019-04-07T01:48:43.641Z,6.89
2019-04-07T01:51:13.541Z,6.87
2019-04-07T01:53:48.866Z,6.83
2019-04-07T01:56:27.305Z,6.84
2019-04-07T01:59:05.623Z,6.80
2019-04-07T02:01:41.722Z,6.74
2019-04-07T02:04:28.074Z,6.68
2019-04-07T02:07:16.228Z,6.61
2019-04-07T02:09:46.851Z,6.54
2019-04-07T02:12:22.431Z,6.58
2019-04-07T02:14:58.901Z,6.61
2019-04-07T02:17:31.763Z,6.52
2019-04-07T02:20:07.826Z,6.48
2019-04-07T02:22:38.607Z,6.43
2019-04-07T02:25:24.054Z,6.38
2019-04-07T02:27:56.899Z,6.30
2019-04-07T02:30:44.836Z,6.25
2019-04-07T02:33:24.365Z,6.16
2019-04-07T02:36:21.390Z,6.12
2019-04-07T02:38:44.128Z,6.03
2019-04-07T02:41:19.941Z,5.89
2019-04-07T02:44:06.854Z,5.80
2019-04-07T02:46:38.058Z,5.73
2019-04-07T02:49:10.910Z,5.74
2019-04-07T02:51:40.724Z,5.77
2019-04-07T02:54:10.571Z,5.70
2019-04-07T02:56:49.471Z,5.70
2019-04-07T02:59:29.204Z,5.67
2019-04-07T03:02:15.363Z,5.61
2019-04-07T03:04:48.104Z,5.54
2019-04-07T03:07:17.956Z,5.53
2019-04-07T03:10:00.405Z,5.49
2019-04-07T03:12:46.695Z,5.47
2019-04-07T03:15:25.386Z,5.49
2019-04-07T03:17:57.921Z,5.45
2019-04-07T03:20:43.439Z,5.45
2019-04-07T03:23:22.268Z,5.47
2019-04-07T03:25:54.960Z,5.49
2019-04-07T03:28:30.673Z,5.51
2019-04-07T03:31:21.280Z,5.43
2019-04-07T03:33:51.910Z,5.32
2019-04-07T03:36:25.144Z,5.23
2019-04-07T03:38:56.125Z,5.18
2019-04-07T03:41:31.888Z,5.09
2019-04-07T03:44:01.818Z,5.09
2019-04-07T03:46:34.677Z,5.08
2019-04-07T03:49:04.565Z,5.05
2019-04-07T03:51:43.939Z,5.01
2019-04-07T03:54:25.633Z,4.99
2019-04-07T03:57:14.971Z,4.96
2019-04-07T03:59:57.765Z,4.91
2019-04-07T04:02:34.409Z,4.89
2019-04-07T04:05:05.317Z,4.83
2019-04-07T04:07:41.833Z,4.78
2019-04-07T04:10:14.484Z,4.76
2019-04-07T04:12:44.309Z,4.83
2019-04-07T04:15:23.161Z,4.83
2019-04-07T04:17:51.400Z,4.80
2019-04-07T04:20:19.776Z,4.78
2019-04-07T04:22:48.571Z,4.78
2019-04-07T04:25:17.189Z,4.78
2019-04-07T04:27:45.503Z,4.77
2019-04-07T04:30:13.718Z,4.74
2019-04-07T04:32:41.961Z,4.74
2019-04-07T04:35:10.772Z,4.75
2019-04-07T04:37:44.236Z,4.71
2019-04-07T04:40:09.347Z,4.67
2019-04-07T04:42:37.701Z,4.69
2019-04-07T04:45:08.066Z,4.72
2019-04-07T04:47:37.456Z,4.77
2019-04-07T04:50:08.276Z,4.84
2019-04-07T04:52:36.780Z,4.91
2019-04-07T04:55:05.428Z,4.97
2019-04-07T04:57:33.996Z,4.90
2019-04-07T05:00:02.434Z,4.84
2019-04-07T05:02:30.611Z,4.84
2019-04-07T05:04:59.372Z,4.84
2019-04-07T05:07:27.601Z,4.88
2019-04-07T05:09:56.763Z,4.90
2019-04-07T05:12:25.219Z,4.88
2019-04-07T05:14:53.996Z,4.90
2019-04-07T05:17:22.206Z,4.91
2019-04-07T05:19:50.973Z,4.92
2019-04-07T05:22:19.218Z,4.91
2019-04-07T05:24:47.594Z,4.94
2019-04-07T05:27:16.448Z,4.97
2019-04-07T05:29:44.756Z,4.99
2019-04-07T05:32:12.916Z,4.98
2019-04-07T05:34:41.267Z,5.00
2019-04-07T05:37:09.889Z,5.02
2019-04-07T05:39:38.397Z,5.08
2019-04-07T05:42:07.037Z,5.11
2019-04-07T05:44:35.600Z,5.15
2019-04-07T05:47:03.842Z,5.18
2019-04-07T05:49:32.527Z,5.20
2019-04-07T05:52:04.039Z,5.26
2019-04-07T05:54:30.664Z,5.34
2019-04-07T05:57:01.350Z,5.41
2019-04-07T05:59:28.832Z,5.49
2019-04-07T06:02:00.701Z,5.69
2019-04-07T06:04:27.114Z,5.96
2019-04-07T06:06:56.382Z,6.20
2019-04-07T06:09:25.131Z,6.35
2019-04-07T06:11:53.305Z,6.39
2019-04-07T06:14:21.498Z,6.38
2019-04-07T06:16:53.595Z,6.40
2019-04-07T06:19:20.321Z,6.42
2019-04-07T06:21:48.900Z,6.51
2019-04-07T06:24:18.398Z,6.68
2019-04-07T06:26:50.003Z,6.87
2019-04-07T06:29:18.287Z,7.03
2019-04-07T06:31:47.103Z,7.20
2019-04-07T06:34:16.185Z,7.37
2019-04-07T06:36:44.971Z,7.48
2019-04-07T06:39:13.534Z,7.61
2019-04-07T06:41:43.303Z,7.77
2019-04-07T06:44:15.809Z,7.88
2019-04-07T06:46:43.452Z,8.03
2019-04-07T06:49:15.933Z,8.17
2019-04-07T06:52:04.175Z,8.31
2019-04-07T06:54:42.114Z,8.43
2019-04-07T06:57:14.832Z,8.50
2019-04-07T07:00:02.326Z,8.61
2019-04-07T07:02:47.823Z,8.72
2019-04-07T07:05:17.886Z,8.83
2019-04-07T07:08:03.678Z,8.96
2019-04-07T07:10:37.797Z,9.05
2019-04-07T07:13:11.567Z,9.10
2019-04-07T07:15:42.894Z,9.19
2019-04-07T07:18:21.308Z,9.25
2019-04-07T07:20:51.529Z,9.37
2019-04-07T07:23:31.087Z,9.46
2019-04-07T07:26:02.929Z,9.55
2019-04-07T07:28:29.168Z,9.66
2019-04-07T07:30:57.369Z,9.76
2019-04-07T07:33:25.569Z,9.86
2019-04-07T07:35:53.787Z,9.96
2019-04-07T07:38:22.463Z,10.08
2019-04-07T07:40:51.548Z,10.16
2019-04-07T07:43:19.872Z,10.28
2019-04-07T07:45:48.576Z,10.36
2019-04-07T07:48:17.486Z,10.44
2019-04-07T07:50:45.818Z,10.55
2019-04-07T07:53:14.093Z,10.68
2019-04-07T07:55:42.255Z,10.82
2019-04-07T07:58:10.576Z,10.91
2019-04-07T08:00:41.560Z,11.07
2019-04-07T08:03:08.957Z,11.23
2019-04-07T08:05:37.617Z,11.31
2019-04-07T08:08:05.918Z,11.43
2019-04-07T08:10:34.295Z,11.55
2019-04-07T08:13:07.475Z,11.66
2019-04-07T08:15:33.657Z,11.80
2019-04-07T08:18:06.458Z,11.95
2019-04-07T08:20:32.666Z,12.09
2019-04-07T08:23:00.874Z,12.20
2019-04-07T08:25:29.203Z,12.36
2019-04-07T08:27:58.145Z,12.53
2019-04-07T08:30:27.122Z,12.66
2019-04-07T08:32:58.583Z,12.79
2019-04-07T08:35:25.289Z,12.98
2019-04-07T08:37:53.505Z,13.19
2019-04-07T08:40:21.739Z,13.40
2019-04-07T08:42:50.794Z,13.52
2019-04-07T08:45:19.640Z,13.54
2019-04-07T08:47:49.602Z,13.65
2019-04-07T08:50:20.803Z,13.75
2019-04-07T08:52:48.311Z,13.88
2019-04-07T08:55:19.941Z,13.96
2019-04-07T08:57:46.913Z,14.01
2019-04-07T09:00:17.461Z,14.13
2019-04-07T09:02:50.373Z,14.23
2019-04-07T09:05:20.632Z,14.27
2019-04-07T09:07:47.142Z,14.36
2019-04-07T09:10:19.483Z,14.45
2019-04-07T09:12:46.934Z,14.54
2019-04-07T09:15:16.792Z,14.68
2019-04-07T09:17:47.721Z,14.84
2019-04-07T09:20:26.991Z,14.97
2019-04-07T09:22:57.990Z,15.09
2019-04-07T09:25:40.032Z,15.25
2019-04-07T09:28:08.736Z,15.38
2019-04-07T09:30:48.288Z,15.50
2019-04-07T09:33:18.164Z,15.71
2019-04-07T09:35:56.725Z,15.90
2019-04-07T09:38:33.750Z,15.99
2019-04-07T09:41:09.558Z,16.10
2019-04-07T09:43:55.195Z,16.18
2019-04-07T09:46:41.643Z,16.23
2019-04-07T09:49:24.524Z,16.29
2019-04-07T09:52:00.976Z,16.41
2019-04-07T09:54:39.846Z,16.53
2019-04-07T09:57:15.690Z,16.67
2019-04-07T09:59:55.791Z,16.79
2019-04-07T10:02:31.887Z,16.91
2019-04-07T10:05:00.791Z,16.88
2019-04-07T10:07:46.876Z,16.87
2019-04-07T10:10:17.163Z,17.01
2019-04-07T10:12:54.303Z,17.09
2019-04-07T10:15:40.269Z,17.23
2019-04-07T10:18:26.082Z,17.28
2019-04-07T10:21:04.386Z,17.23
2019-04-07T10:23:48.739Z,17.28
2019-04-07T10:26:33.763Z,17.36
2019-04-07T10:29:19.796Z,17.36
2019-04-07T10:31:58.922Z,17.49
2019-04-07T10:34:31.969Z,17.55
2019-04-07T10:37:17.741Z,17.57
2019-04-07T10:40:03.128Z,17.60
2019-04-07T10:42:44.854Z,17.76
2019-04-07T10:45:17.500Z,17.86
2019-04-07T10:47:47.326Z,17.79
2019-04-07T10:50:23.175Z,17.77
2019-04-07T10:53:08.252Z,17.76
2019-04-07T10:55:44.152Z,17.86
2019-04-07T10:58:16.913Z,17.96
2019-04-07T11:00:55.240Z,18.05
2019-04-07T11:03:41.394Z,18.12
2019-04-07T11:06:29.474Z,18.25
2019-04-07T11:09:08.001Z,18.37
2019-04-07T11:11:43.833Z,18.40
2019-04-07T11:14:22.934Z,18.39
2019-04-07T11:16:52.777Z,18.23
2019-04-07T11:19:40.993Z,18.39
2019-04-07T11:22:16.606Z,18.47
2019-04-07T11:25:02.351Z,18.48
2019-04-07T11:27:38.169Z,18.53
2019-04-07T11:30:12.079Z,18.58
2019-04-07T11:32:54.329Z,18.39
2019-04-07T11:35:26.765Z,18.24
2019-04-07T11:37:55.956Z,18.26
2019-04-07T11:40:41.951Z,18.19
2019-04-07T11:43:04.361Z,18.22
2019-04-07T11:45:56.075Z,18.29
2019-04-07T11:48:24.166Z,18.28
2019-04-07T11:50:54.249Z,18.20
2019-04-07T11:53:30.781Z,17.82
2019-04-07T11:56:13.265Z,17.82
2019-04-07T11:58:45.877Z,17.97
2019-04-07T12:01:16.666Z,17.82
2019-04-07T12:03:46.524Z,17.46
2019-04-07T12:06:18.053Z,17.18
2019-04-07T12:09:04.887Z,17.35
2019-04-07T12:11:34.733Z,17.54
2019-04-07T12:14:07.424Z,17.34
2019-04-07T12:16:55.310Z,17.19
2019-04-07T12:19:32.086Z,17.11
2019-04-07T12:22:10.395Z,16.84
2019-04-07T12:24:42.207Z,17.02
2019-04-07T12:27:15.148Z,17.10
2019-04-07T12:30:01.124Z,17.26
2019-04-07T12:32:31.365Z,17.37
2019-04-07T12:35:01.188Z,17.31
2019-04-07T12:37:31.759Z,17.14
2019-04-07T12:40:20.722Z,17.22
2019-04-07T12:43:04.642Z,17.18
2019-04-07T12:45:46.770Z,17.17
2019-04-07T12:48:25.871Z,17.30
2019-04-07T12:51:13.644Z,17.27
2019-04-07T12:53:46.155Z,17.08
2019-04-07T12:56:16.891Z,16.88
2019-04-07T12:58:55.992Z,16.88
2019-04-07T13:01:25.840Z,16.90
2019-04-07T13:03:55.887Z,16.95
2019-04-07T13:06:31.993Z,16.94
2019-04-07T13:09:18.244Z,17.02
2019-04-07T13:12:04.274Z,17.15
2019-04-07T13:14:38.577Z,17.23
2019-04-07T13:17:17.901Z,17.20
2019-04-07T13:19:51.365Z,17.10
2019-04-07T13:22:33.488Z,17.10
2019-04-07T13:25:20.093Z,17.22
2019-04-07T13:27:57.811Z,17.28
2019-04-07T13:30:42.286Z,17.33
2019-04-07T13:33:29.555Z,17.37
2019-04-07T13:35:59.642Z,17.44
2019-04-07T13:38:29.436Z,17.68
2019-04-07T13:41:05.414Z,17.66
2019-04-07T13:43:53.488Z,17.53
2019-04-07T13:46:40.080Z,17.52
2019-04-07T13:49:16.103Z,17.61
2019-04-07T13:51:49.362Z,17.66
2019-04-07T13:54:31.231Z,17.64
2019-04-07T13:57:00.350Z,17.62
2019-04-07T13:59:30.202Z,17.58
2019-04-07T14:02:03.129Z,17.58
2019-04-07T14:04:42.405Z,17.55
2019-04-07T14:07:17.966Z,17.54
2019-04-07T14:09:49.563Z,17.60
2019-04-07T14:12:25.966Z,17.58
2019-04-07T14:15:02.841Z,17.60
2019-04-07T14:17:44.967Z,17.59
2019-04-07T14:20:22.634Z,17.59
2019-04-07T14:22:53.105Z,17.57
2019-04-07T14:25:23.467Z,17.59
2019-04-07T14:28:12.180Z,17.61
2019-04-07T14:30:45.659Z,17.69
2019-04-07T14:33:15.522Z,17.73
2019-04-07T14:35:45.404Z,17.69
2019-04-07T14:38:21.260Z,17.67
2019-04-07T14:41:07.485Z,17.67
2019-04-07T14:43:49.735Z,17.67
2019-04-07T14:46:21.138Z,17.67
2019-04-07T14:48:54.416Z,17.70
2019-04-07T14:51:28.372Z,17.72
2019-04-07T14:54:01.121Z,17.72
2019-04-07T14:56:40.824Z,17.76
2019-04-07T14:59:11.746Z,17.75
2019-04-07T15:01:56.040Z,17.71
2019-04-07T15:04:32.675Z,17.78
2019-04-07T15:07:18.240Z,17.84
2019-04-07T15:10:05.071Z,17.88
2019-04-07T15:12:46.874Z,17.94
2019-04-07T15:15:15.950Z,17.97
2019-04-07T15:17:45.601Z,18.00
2019-04-07T15:20:15.679Z,18.03
2019-04-07T15:22:46.848Z,18.07
2019-04-07T15:25:14.046Z,18.07
2019-04-07T15:27:42.525Z,18.07
2019-04-07T15:30:15.338Z,18.07
2019-04-07T15:32:41.626Z,18.06
2019-04-07T15:35:13.220Z,18.02
2019-04-07T15:37:41.034Z,17.92
2019-04-07T15:40:10.899Z,17.90
2019-04-07T15:42:44.114Z,17.91
2019-04-07T15:45:12.040Z,17.95
2019-04-07T15:47:40.439Z,17.97
2019-04-07T15:50:09.549Z,18.00
2019-04-07T15:52:42.175Z,18.00
2019-04-07T15:55:08.615Z,17.89
2019-04-07T15:57:37.303Z,17.76
2019-04-07T16:00:08.836Z,17.78
2019-04-07T16:02:40.933Z,17.79
2019-04-07T16:05:07.072Z,17.60
2019-04-07T16:07:35.301Z,17.48
2019-04-07T16:10:05.881Z,17.38
2019-04-07T16:12:42.872Z,17.26
2019-04-07T16:15:05.338Z,17.14
2019-04-07T16:17:34.811Z,17.03
2019-04-07T16:20:04.034Z,16.98
2019-04-07T16:22:32.251Z,16.84
2019-04-07T16:25:01.827Z,16.72
2019-04-07T16:27:30.452Z,16.60
2019-04-07T16:29:58.654Z,16.66
2019-04-07T16:32:29.186Z,16.57
2019-04-07T16:34:57.322Z,16.52
2019-04-07T16:37:29.102Z,16.58
2019-04-07T16:39:55.630Z,16.58
2019-04-07T16:42:27.587Z,16.47
2019-04-07T16:44:56.177Z,16.43
2019-04-07T16:47:26.282Z,16.35
2019-04-07T16:49:54.731Z,16.29
2019-04-07T16:52:23.158Z,16.26
2019-04-07T16:54:51.669Z,16.24
2019-04-07T16:57:20.507Z,16.30
2019-04-07T16:59:48.697Z,16.21
2019-04-07T17:02:18.274Z,16.12
2019-04-07T17:04:47.093Z,16.07
2019-04-07T17:07:17.094Z,16.00
2019-04-07T17:09:45.596Z,15.95
2019-04-07T17:12:14.945Z,15.80
2019-04-07T17:14:43.573Z,15.74
2019-04-07T17:17:15.686Z,15.60
2019-04-07T17:19:42.077Z,15.45
2019-04-07T17:22:14.001Z,15.30
2019-04-07T17:24:40.985Z,15.15
2019-04-07T17:27:11.398Z,14.99
2019-04-07T17:29:39.529Z,14.83
2019-04-07T17:32:08.916Z,14.71
2019-04-07T17:34:37.983Z,14.61
2019-04-07T17:37:07.281Z,14.50
2019-04-07T17:39:46.161Z,14.37
2019-04-07T17:42:15.643Z,14.28
2019-04-07T17:44:47.830Z,14.17
2019-04-07T17:47:29.390Z,14.11
2019-04-07T17:50:14.717Z,13.94
2019-04-07T17:52:48.237Z,13.87
2019-04-07T17:55:34.207Z,13.78
2019-04-07T17:58:20.110Z,13.68
2019-04-07T18:01:06.302Z,13.53
2019-04-07T18:03:41.829Z,13.45
2019-04-07T18:06:15.665Z,13.36
2019-04-07T18:08:51.820Z,13.22
2019-04-07T18:11:23.162Z,13.13
2019-04-07T18:13:56.682Z,13.02
2019-04-07T18:16:34.178Z,12.97
2019-04-07T18:19:07.184Z,12.93
2019-04-07T18:21:53.890Z,12.87
2019-04-07T18:24:39.236Z,12.78
2019-04-07T18:27:11.857Z,12.65
2019-04-07T18:29:43.315Z,12.56
2019-04-07T18:32:21.903Z,12.49
2019-04-07T18:34:52.792Z,12.39
2019-04-07T18:37:40.131Z,12.29
2019-04-07T18:40:27.446Z,12.22
2019-04-07T18:43:00.999Z,12.16
2019-04-07T18:45:33.345Z,12.03
2019-04-07T18:48:03.471Z,11.90
2019-04-07T18:50:36.936Z,11.76
2019-04-07T18:53:20.780Z,11.66
2019-04-07T18:55:50.944Z,11.57
2019-04-07T18:58:20.948Z,11.42
2019-04-07T19:00:57.468Z,11.30
2019-04-07T19:03:30.091Z,11.18
2019-04-07T19:06:16.561Z,11.09
2019-04-07T19:09:01.871Z,10.99
2019-04-07T19:11:48.701Z,10.92
2019-04-07T19:14:38.018Z,10.88
2019-04-07T19:17:05.384Z,10.81
2019-04-07T19:19:46.794Z,10.75
2019-04-07T19:22:34.817Z,10.67
2019-04-07T19:25:15.740Z,10.59
2019-04-07T19:28:01.022Z,10.50
2019-04-07T19:30:48.616Z,10.42
2019-04-07T19:33:17.273Z,10.33
2019-04-07T19:35:49.952Z,10.21
2019-04-07T19:38:37.333Z,10.19
2019-04-07T19:41:06.850Z,10.21
2019-04-07T19:43:37.186Z,10.18
2019-04-07T19:46:26.433Z,10.10
2019-04-07T19:48:58.998Z,10.01
2019-04-07T19:51:32.152Z,9.95
2019-04-07T19:54:20.155Z,9.97
2019-04-07T19:56:55.447Z,9.86
2019-04-07T19:59:42.662Z,9.75
2019-04-07T20:02:12.279Z,9.62
2019-04-07T20:04:53.532Z,9.47
2019-04-07T20:07:31.583Z,9.40
2019-04-07T20:10:23.721Z,9.29
2019-04-07T20:12:51.994Z,9.23
2019-04-07T20:15:29.737Z,9.17
2019-04-07T20:18:17.461Z,9.13
2019-04-07T20:20:48.323Z,9.11
2019-04-07T20:23:34.519Z,9.10
2019-04-07T20:26:22.293Z,9.10
2019-04-07T20:29:07.041Z,9.06
2019-04-07T20:31:51.967Z,9.03
2019-04-07T20:34:27.791Z,9.04
2019-04-07T20:37:07.223Z,9.00
2019-04-07T20:39:37.505Z,8.96
2019-04-07T20:42:17.364Z,8.98
2019-04-07T20:45:02.487Z,9.01
2019-04-07T20:47:38.156Z,8.99
2019-04-07T20:50:20.190Z,8.93
2019-04-07T20:52:50.402Z,8.83
2019-04-07T20:55:29.145Z,8.75
2019-04-07T20:58:22.087Z,8.64
2019-04-07T21:01:04.926Z,8.53
2019-04-07T21:03:37.573Z,8.38
2019-04-07T21:06:19.903Z,8.33
2019-04-07T21:08:49.898Z,8.24
2019-04-07T21:11:25.978Z,8.19
2019-04-07T21:14:15.485Z,8.16
2019-04-07T21:16:57.861Z,8.10
2019-04-07T21:19:38.847Z,8.02
2019-04-07T21:22:08.822Z,8.03
2019-04-07T21:24:38.985Z,7.97
2019-04-07T21:27:08.800Z,7.89
2019-04-07T21:29:45.925Z,7.89
2019-04-07T21:32:23.236Z,7.93
2019-04-07T21:35:01.380Z,7.89
2019-04-07T21:37:40.820Z,7.80
2019-04-07T21:40:20.979Z,7.71
2019-04-07T21:42:56.519Z,7.67
2019-04-07T21:45:35.403Z,7.70
2019-04-07T21:48:01.381Z,7.71
2019-04-07T21:50:31.698Z,7.67
2019-04-07T21:53:07.399Z,7.61
2019-04-07T21:55:42.075Z,7.59
2019-04-07T21:58:12.397Z,7.53
2019-04-07T22:00:51.142Z,7.47
2019-04-07T22:03:23.496Z,7.45
2019-04-07T22:05:59.391Z,7.43
2019-04-07T22:08:47.784Z,7.42
2019-04-07T22:11:16.274Z,7.39
2019-04-07T22:13:44.920Z,7.34
2019-04-07T22:16:13.129Z,7.33
2019-04-07T22:18:41.820Z,7.27
2019-04-07T22:21:10.206Z,7.23
2019-04-07T22:23:38.676Z,7.21
2019-04-07T22:26:12.721Z,7.17
2019-04-07T22:28:37.311Z,7.10
2019-04-07T22:31:05.661Z,7.06
2019-04-07T22:33:34.945Z,7.03
2019-04-07T22:36:03.879Z,6.99
2019-04-07T22:38:32.126Z,6.92
2019-04-07T22:41:01.324Z,6.83
2019-04-07T22:43:29.593Z,6.83
2019-04-07T22:46:07.741Z,6.76
2019-04-07T22:48:29.354Z,6.75
2019-04-07T22:50:58.733Z,6.76
2019-04-07T22:53:29.591Z,6.70
2019-04-07T22:55:57.125Z,6.61
2019-04-07T22:58:25.585Z,6.58
2019-04-07T23:00:54.340Z,6.57
2019-04-07T23:03:22.504Z,6.55
2019-04-07T23:05:51.351Z,6.58
2019-04-07T23:08:19.532Z,6.56
2019-04-07T23:10:48.018Z,6.56
2019-04-07T23:13:16.626Z,6.65
2019-04-07T23:15:46.445Z,6.71
2019-04-07T23:18:15.809Z,6.81
2019-04-07T23:20:44.490Z,6.79
2019-04-07T23:23:12.980Z,6.80
2019-04-07T23:25:42.041Z,6.81
2019-04-07T23:28:10.452Z,6.83
2019-04-07T23:30:39.714Z,6.79
2019-04-07T23:33:08.373Z,6.76
2019-04-07T23:35:37.083Z,6.72
2019-04-07T23:38:05.780Z,6.72
2019-04-07T23:40:34.384Z,6.71
2019-04-07T23:43:02.670Z,6.73
2019-04-07T23:45:31.589Z,6.74
2019-04-07T23:47:59.976Z,6.71
2019-04-07T23:50:29.252Z,6.70
2019-04-07T23:53:00.146Z,6.67
2019-04-07T23:55:28.405Z,6.65
2019-04-07T23:57:56.825Z,6.70
